Decoded Metar for KEET (ALABASTER in AL, USA) (IATA:EET) | Meteo·Mobile Aviation Weather
aviador You're here:

KEET Decoded Metar

ALABASTER in AL, USA
Report Time2018-08-15 23:53:00
UTC Time2018-08-16 00:48:14
Flight Rules vfr VFR
Wind180° at 03 kt
W.Decomp.*RWY 16: 2.8 kt HW 1.2 kt RCW
W.Rank180° ranks 2
Current wind is below 180° avg. (5.8)
Visibility9999 m
Phenomena:N/A
Clouds:N/A
Expected CloudBase > 3,200 ft AGL from Temp-Dew spread
CeilingNone
Temp30°C (ISA +16)
Dew Point22°C (62% RH)
Heat Index33.2°C
QNH1018 hPa
Density Alt2,598 ft
Elevation568 ft
Report Wrong Elevation
Raw Report
METAR KEET 152353Z AUTO 18003KT 10SM CLR 30/22 A3005 RMK AO2 SLP167
T03000222 10333 20294 55002=

Extra information for KEET:More info

Metar Taf Metar & Taf Last 4 Metars F.Rules Stats Wind Profile Meteogram Temp Stats Airport Information Weather charts Add Link Nearby VenuesMetar ALERT Operation Metar Decoded Social comments

AIRNAV info for KEET